createdAt,value
2019-02-23T00:02:17.198Z,14.85
2019-02-23T00:04:45.621Z,12.93
2019-02-23T00:07:14.285Z,11.40
2019-02-23T00:09:42.709Z,11.12
2019-02-23T00:12:11.126Z,10.23
2019-02-23T00:14:39.793Z,10.40
2019-02-23T00:17:08.224Z,8.50
2019-02-23T00:19:36.641Z,11.50
2019-02-23T00:22:05.356Z,13.05
2019-02-23T00:24:36.909Z,13.30
2019-02-23T00:27:05.589Z,9.70
2019-02-23T00:29:34.005Z,11.33
2019-02-23T00:32:02.438Z,9.65
2019-02-23T00:34:31.103Z,12.75
2019-02-23T00:36:59.534Z,14.53
2019-02-23T00:39:27.960Z,12.33
2019-02-23T00:41:56.390Z,13.48
2019-02-23T00:44:24.798Z,13.65
2019-02-23T00:46:53.229Z,11.10
2019-02-23T00:49:21.890Z,11.80
2019-02-23T00:51:51.883Z,11.05
2019-02-23T00:54:20.581Z,11.93
2019-02-23T00:56:49.005Z,13.00
2019-02-23T00:59:17.424Z,11.50
2019-02-23T01:01:45.849Z,11.40
2019-02-23T01:04:14.265Z,10.38
2019-02-23T01:06:42.697Z,12.33
2019-02-23T01:09:11.113Z,14.07
2019-02-23T01:11:39.541Z,14.23
2019-02-23T01:14:07.962Z,13.85
2019-02-23T01:16:36.392Z,13.98
2019-02-23T01:19:05.054Z,12.82
2019-02-23T01:21:33.762Z,14.55
2019-02-23T01:24:02.218Z,11.70
2019-02-23T01:26:30.649Z,14.65
2019-02-23T01:28:59.144Z,15.43
2019-02-23T01:31:27.787Z,15.05
2019-02-23T01:33:56.495Z,14.63
2019-02-23T01:36:24.931Z,15.65
2019-02-23T01:38:53.347Z,17.00
2019-02-23T01:41:22.009Z,21.30
2019-02-23T01:43:50.473Z,13.50
2019-02-23T01:46:18.898Z,13.95
2019-02-23T01:48:47.565Z,13.13
2019-02-23T01:51:15.990Z,10.63
2019-02-23T01:53:44.405Z,13.20
2019-02-23T01:56:12.901Z,14.85
2019-02-23T01:58:41.314Z,14.40
2019-02-23T02:01:09.738Z,14.33
2019-02-23T02:03:38.150Z,14.38
2019-02-23T02:06:06.645Z,13.48
2019-02-23T02:08:36.070Z,14.10
2019-02-23T02:11:04.493Z,13.25
2019-02-23T02:13:33.167Z,15.45
2019-02-23T02:16:01.821Z,18.20
2019-02-23T02:18:30.458Z,15.05
2019-02-23T02:20:59.159Z,14.85
2019-02-23T02:23:27.581Z,11.97
2019-02-23T02:25:56.216Z,16.70
2019-02-23T02:28:24.971Z,16.52
2019-02-23T02:30:53.431Z,16.10
2019-02-23T02:33:22.096Z,15.93
2019-02-23T02:35:50.514Z,15.18
2019-02-23T02:38:19.162Z,13.38
2019-02-23T02:40:47.877Z,16.55
2019-02-23T02:43:16.307Z,13.28
2019-02-23T02:45:44.721Z,16.40
2019-02-23T02:48:13.148Z,16.17
2019-02-23T02:50:41.889Z,14.85
2019-02-23T02:53:10.311Z,17.52
2019-02-23T02:55:38.971Z,17.25
2019-02-23T02:58:07.405Z,18.77
2019-02-23T03:00:35.813Z,17.85
2019-02-23T03:03:04.237Z,19.77
2019-02-23T03:05:32.660Z,17.67
2019-02-23T03:08:01.090Z,18.15
2019-02-23T03:10:29.503Z,23.83
2019-02-23T03:12:57.933Z,16.60
2019-02-23T03:15:26.360Z,17.32
2019-02-23T03:17:54.794Z,18.17
2019-02-23T03:20:35.957Z,19.65
2019-02-23T03:22:53.836Z,19.15
2019-02-23T03:25:22.539Z,21.15
2019-02-23T03:27:50.961Z,23.25
2019-02-23T03:30:19.648Z,19.65
2019-02-23T03:32:48.109Z,20.80
2019-02-23T03:35:16.519Z,16.77
2019-02-23T03:37:45.154Z,21.23
2019-02-23T03:40:13.679Z,17.52
2019-02-23T03:42:42.309Z,20.77
2019-02-23T03:45:11.002Z,23.95
2019-02-23T03:47:39.429Z,23.00
2019-02-23T03:50:08.581Z,20.72
2019-02-23T03:52:37.070Z,21.15
2019-02-23T03:55:06.024Z,22.65
2019-02-23T03:57:34.489Z,23.62
2019-02-23T04:00:03.170Z,17.80
2019-02-23T04:02:31.579Z,21.60
2019-02-23T04:05:00.405Z,26.65
2019-02-23T04:07:29.042Z,21.57
2019-02-23T04:09:57.497Z,21.00
2019-02-23T04:12:26.158Z,20.80
2019-02-23T04:14:54.608Z,20.45
2019-02-23T04:17:23.021Z,24.98
2019-02-23T04:19:51.669Z,21.15
2019-02-23T04:22:20.391Z,18.62
2019-02-23T04:24:48.819Z,20.88
2019-02-23T04:27:17.478Z,21.37
2019-02-23T04:29:47.037Z,22.82
2019-02-23T04:32:15.706Z,20.90
2019-02-23T04:34:44.370Z,19.15
2019-02-23T04:37:13.024Z,20.20
2019-02-23T04:39:41.742Z,18.90
2019-02-23T04:42:10.446Z,20.65
2019-02-23T04:44:39.172Z,20.80
2019-02-23T04:47:07.832Z,18.35
2019-02-23T04:49:36.250Z,22.45
2019-02-23T04:52:04.888Z,20.05
2019-02-23T04:54:36.425Z,15.45
2019-02-23T04:57:04.847Z,17.75
2019-02-23T04:59:33.269Z,17.45
2019-02-23T05:02:01.682Z,19.25
2019-02-23T05:04:30.346Z,16.50
2019-02-23T05:06:58.795Z,19.95
2019-02-23T05:09:27.221Z,18.92
2019-02-23T05:11:55.893Z,15.25
2019-02-23T05:14:24.638Z,11.83
2019-02-23T05:16:53.046Z,14.35
2019-02-23T05:19:21.470Z,17.40
2019-02-23T05:21:50.138Z,13.30
2019-02-23T05:24:18.566Z,14.00
2019-02-23T05:26:46.977Z,15.60
2019-02-23T05:29:15.626Z,17.25
2019-02-23T05:31:44.073Z,14.00
2019-02-23T05:34:12.754Z,13.48
2019-02-23T05:36:41.396Z,10.32
2019-02-23T05:39:09.845Z,8.35
2019-02-23T05:41:38.507Z,13.22
2019-02-23T05:44:07.202Z,12.03
2019-02-23T05:46:35.669Z,9.53
2019-02-23T05:49:04.098Z,10.43
2019-02-23T05:51:38.653Z,9.35
2019-02-23T05:54:02.973Z,9.73
2019-02-23T05:56:31.642Z,10.35
2019-02-23T05:59:00.294Z,8.13
2019-02-23T06:01:28.975Z,8.88
2019-02-23T06:03:57.386Z,10.60
2019-02-23T06:06:25.814Z,11.28
2019-02-23T06:08:54.221Z,8.55
2019-02-23T06:11:22.879Z,8.55
2019-02-23T06:13:51.346Z,9.35
2019-02-23T06:16:19.765Z,14.30
2019-02-23T06:18:48.185Z,6.90
2019-02-23T06:21:16.625Z,10.93
2019-02-23T06:23:45.037Z,9.13
2019-02-23T06:26:13.498Z,13.28
2019-02-23T06:28:42.130Z,10.50
2019-02-23T06:31:10.593Z,11.85
2019-02-23T06:33:39.010Z,8.18
2019-02-23T06:36:07.457Z,13.70
2019-02-23T06:38:35.864Z,9.73
2019-02-23T06:41:04.288Z,15.98
2019-02-23T06:43:32.942Z,10.58
2019-02-23T06:46:01.422Z,12.37
2019-02-23T06:48:29.866Z,10.40
2019-02-23T06:50:58.281Z,10.93
2019-02-23T06:53:26.696Z,10.53
2019-02-23T06:55:55.109Z,12.55
2019-02-23T06:58:23.522Z,8.08
2019-02-23T07:00:51.951Z,7.80
2019-02-23T07:03:20.354Z,9.53
2019-02-23T07:05:49.514Z,11.15
2019-02-23T07:08:17.930Z,14.60
2019-02-23T07:10:46.450Z,11.12
2019-02-23T07:13:15.098Z,6.42
2019-02-23T07:15:43.527Z,6.83
2019-02-23T07:18:11.938Z,8.95
2019-02-23T07:20:44.267Z,9.83
2019-02-23T07:23:10.506Z,7.58
2019-02-23T07:25:38.885Z,10.95
2019-02-23T07:28:07.331Z,8.05
2019-02-23T07:30:35.754Z,6.47
2019-02-23T07:33:04.189Z,7.00
2019-02-23T07:35:32.609Z,9.73
2019-02-23T07:38:01.058Z,6.20
2019-02-23T07:40:29.534Z,6.75
2019-02-23T07:42:57.971Z,6.03
2019-02-23T07:45:26.457Z,7.30
2019-02-23T07:47:54.863Z,5.28
2019-02-23T07:50:23.285Z,13.18
2019-02-23T07:52:51.943Z,7.75
2019-02-23T07:55:20.694Z,6.90
2019-02-23T07:57:49.175Z,4.72
2019-02-23T08:00:17.591Z,8.20
2019-02-23T08:02:46.266Z,7.87
2019-02-23T08:05:14.674Z,6.75
2019-02-23T08:07:43.105Z,4.70
2019-02-23T08:10:12.774Z,4.45
2019-02-23T08:12:41.209Z,5.65
2019-02-23T08:15:11.518Z,4.70
2019-02-23T08:17:39.933Z,5.40
2019-02-23T08:20:12.896Z,6.42
2019-02-23T08:22:41.326Z,8.55
2019-02-23T08:25:12.070Z,4.35
2019-02-23T08:27:40.713Z,5.08
2019-02-23T08:30:14.486Z,8.55
2019-02-23T08:32:42.911Z,10.80
2019-02-23T08:35:11.313Z,4.28
2019-02-23T08:37:39.741Z,5.00
2019-02-23T08:40:11.195Z,9.68
2019-02-23T08:42:39.614Z,4.20
2019-02-23T08:45:09.565Z,6.65
2019-02-23T08:47:38.006Z,10.28
2019-02-23T08:50:09.440Z,6.78
2019-02-23T08:52:48.122Z,4.67
2019-02-23T08:55:09.570Z,9.53
2019-02-23T08:57:38.243Z,5.58
2019-02-23T09:00:15.430Z,5.25
2019-02-23T09:02:44.068Z,3.80
2019-02-23T09:05:13.502Z,5.70
2019-02-23T09:07:41.947Z,6.27
2019-02-23T09:10:12.782Z,4.83
2019-02-23T09:12:41.248Z,3.57
2019-02-23T09:15:10.690Z,3.47
2019-02-23T09:17:39.114Z,3.93
2019-02-23T09:20:09.584Z,6.93
2019-02-23T09:22:38.078Z,7.17
2019-02-23T09:25:10.839Z,4.37
2019-02-23T09:27:39.347Z,4.47
2019-02-23T09:30:14.751Z,4.50
2019-02-23T09:32:43.237Z,10.33
2019-02-23T09:35:12.870Z,3.83
2019-02-23T09:37:41.363Z,5.00
2019-02-23T09:40:18.343Z,4.43
2019-02-23T09:42:46.908Z,3.63
2019-02-23T09:45:15.348Z,6.03
2019-02-23T09:47:43.895Z,3.77
2019-02-23T09:50:12.323Z,5.50
2019-02-23T09:52:40.739Z,4.73
2019-02-23T09:55:09.573Z,3.63
2019-02-23T09:57:38.338Z,7.10
2019-02-23T10:00:11.901Z,4.90
2019-02-23T10:02:40.556Z,5.80
2019-02-23T10:05:09.562Z,3.57
2019-02-23T10:07:38.187Z,2.60
2019-02-23T10:10:09.315Z,2.43
2019-02-23T10:12:37.797Z,5.30
2019-02-23T10:15:08.487Z,3.20
2019-02-23T10:17:36.939Z,7.13
2019-02-23T10:20:08.609Z,8.53
2019-02-23T10:22:39.533Z,13.63
2019-02-23T10:25:07.399Z,4.73
2019-02-23T10:27:35.859Z,6.00
2019-02-23T10:30:07.143Z,3.03
2019-02-23T10:32:35.579Z,5.13
2019-02-23T10:35:04.833Z,9.43
2019-02-23T10:37:33.262Z,15.80
2019-02-23T10:40:01.689Z,6.23
2019-02-23T10:42:30.121Z,6.33
2019-02-23T10:44:58.542Z,3.37
2019-02-23T10:47:26.954Z,5.47
2019-02-23T10:49:55.647Z,2.33
2019-02-23T10:52:24.088Z,2.27
2019-02-23T10:54:52.782Z,3.40
2019-02-23T10:57:21.207Z,2.50
2019-02-23T10:59:50.495Z,4.90
2019-02-23T11:02:18.971Z,7.13
2019-02-23T11:04:47.394Z,3.47
2019-02-23T11:07:15.879Z,5.33
2019-02-23T11:09:44.299Z,7.17
2019-02-23T11:12:12.378Z,4.13
2019-02-23T11:14:40.466Z,4.30
2019-02-23T11:17:08.618Z,4.50
2019-02-23T11:19:36.735Z,6.97
2019-02-23T11:22:04.809Z,5.67
2019-02-23T11:24:33.143Z,5.37
2019-02-23T11:27:01.227Z,7.53
2019-02-23T11:29:30.334Z,4.60
2019-02-23T11:31:58.839Z,4.07
2019-02-23T11:34:26.923Z,9.53
2019-02-23T11:36:55.278Z,9.60
2019-02-23T11:39:23.607Z,8.83
2019-02-23T11:41:51.938Z,4.13
2019-02-23T11:44:20.368Z,3.87
2019-02-23T11:46:59.804Z,5.50
2019-02-23T11:49:18.930Z,3.03
2019-02-23T11:51:47.596Z,6.93
2019-02-23T11:54:16.252Z,3.67
2019-02-23T11:56:44.658Z,3.00
2019-02-23T11:59:13.323Z,4.73
2019-02-23T12:01:41.742Z,4.53
2019-02-23T12:04:10.159Z,4.30
2019-02-23T12:06:38.586Z,4.40
2019-02-23T12:09:08.218Z,3.53
2019-02-23T12:11:37.114Z,3.50
2019-02-23T12:14:05.547Z,9.40
2019-02-23T12:16:33.970Z,5.17
2019-02-23T12:19:02.613Z,7.90
2019-02-23T12:21:31.293Z,9.30
2019-02-23T12:24:06.014Z,6.13
2019-02-23T12:26:30.137Z,4.40
2019-02-23T12:28:58.575Z,7.23
2019-02-23T12:31:27.022Z,6.83
2019-02-23T12:33:55.661Z,5.33
2019-02-23T12:36:24.114Z,8.03
2019-02-23T12:38:52.822Z,5.00
2019-02-23T12:41:21.240Z,7.50
2019-02-23T12:43:49.652Z,6.33
2019-02-23T12:46:18.104Z,5.90
2019-02-23T12:48:46.767Z,6.47
2019-02-23T12:51:15.188Z,4.23
2019-02-23T12:53:43.608Z,4.50
2019-02-23T12:56:12.039Z,11.23
2019-02-23T12:58:40.501Z,4.80
2019-02-23T13:01:09.132Z,6.40
2019-02-23T13:03:37.672Z,12.33
2019-02-23T13:06:06.119Z,4.60
2019-02-23T13:09:11.147Z,6.57
2019-02-23T13:11:39.719Z,6.23
2019-02-23T13:14:11.213Z,22.20
2019-02-23T13:16:39.706Z,4.90
2019-02-23T13:19:29.503Z,6.80
2019-02-23T13:22:03.655Z,9.93
2019-02-23T13:24:40.813Z,5.47
2019-02-23T13:27:21.561Z,35.23
2019-02-23T13:30:11.463Z,6.30
2019-02-23T13:32:51.742Z,11.40
2019-02-23T13:35:50.017Z,5.50
2019-02-23T13:38:42.506Z,6.83
2019-02-23T13:41:19.539Z,6.53
2019-02-23T13:43:53.651Z,5.53
2019-02-23T13:46:25.127Z,7.87
2019-02-23T13:49:19.428Z,17.50
2019-02-23T13:51:57.321Z,7.87
2019-02-23T13:54:45.298Z,5.57
2019-02-23T13:57:28.431Z,8.53
2019-02-23T14:00:21.256Z,7.50
2019-02-23T14:03:07.351Z,7.10
2019-02-23T14:05:44.607Z,7.30
2019-02-23T14:08:18.986Z,6.27
2019-02-23T14:11:17.275Z,6.50
2019-02-23T14:14:04.020Z,6.67
2019-02-23T14:16:41.110Z,7.60
2019-02-23T14:19:27.447Z,9.30
2019-02-23T14:22:11.022Z,9.93
2019-02-23T14:24:50.011Z,6.17
2019-02-23T14:27:40.492Z,7.17
2019-02-23T14:30:23.858Z,5.33
2019-02-23T14:32:58.063Z,10.73
2019-02-23T14:35:55.417Z,10.93
2019-02-23T14:38:45.313Z,6.00
2019-02-23T14:41:22.453Z,7.70
2019-02-23T14:43:59.851Z,6.33
2019-02-23T14:46:52.320Z,8.33
2019-02-23T14:49:35.746Z,7.80
2019-02-23T14:52:12.998Z,5.67
2019-02-23T14:55:00.701Z,5.17
2019-02-23T14:57:44.309Z,9.10
2019-02-23T15:00:27.729Z,5.93
2019-02-23T15:03:21.881Z,5.33
2019-02-23T15:06:11.511Z,4.30
2019-02-23T15:08:45.669Z,5.73
2019-02-23T15:11:22.938Z,5.33
2019-02-23T15:14:09.243Z,5.87
2019-02-23T15:17:05.158Z,6.83
2019-02-23T15:19:51.562Z,6.30
2019-02-23T15:22:45.297Z,4.93
2019-02-23T15:25:25.623Z,4.67
2019-02-23T15:28:37.427Z,6.23
2019-02-23T15:31:15.457Z,7.60
2019-02-23T15:34:04.598Z,4.90
2019-02-23T15:36:41.921Z,6.03
2019-02-23T15:39:23.363Z,6.40
2019-02-23T15:41:53.305Z,5.73
2019-02-23T15:44:32.011Z,6.70
2019-02-23T15:47:04.534Z,3.00
2019-02-23T15:49:32.858Z,3.23
2019-02-23T15:52:02.505Z,3.93
2019-02-23T15:54:31.014Z,7.90
2019-02-23T15:56:59.450Z,5.47
2019-02-23T15:59:27.876Z,3.40
2019-02-23T16:01:56.298Z,2.60
2019-02-23T16:04:24.705Z,3.30
2019-02-23T16:06:53.176Z,2.87
2019-02-23T16:09:21.883Z,6.43
2019-02-23T16:11:50.346Z,3.33
2019-02-23T16:14:18.755Z,3.60
2019-02-23T16:16:47.659Z,6.70
2019-02-23T16:19:16.169Z,2.47
2019-02-23T16:21:44.832Z,4.47
2019-02-23T16:24:13.305Z,2.25
2019-02-23T16:26:41.714Z,2.20
2019-02-23T16:29:10.130Z,2.67
2019-02-23T16:31:38.558Z,5.67
2019-02-23T16:34:07.468Z,13.73
2019-02-23T16:36:36.217Z,2.40
2019-02-23T16:39:08.750Z,4.45
2019-02-23T16:41:37.429Z,5.10
2019-02-23T16:44:05.834Z,5.15
2019-02-23T16:46:34.247Z,2.77
2019-02-23T16:49:02.703Z,2.87
2019-02-23T16:51:31.110Z,7.90
2019-02-23T16:53:59.565Z,4.92
2019-02-23T16:56:27.989Z,8.93
2019-02-23T16:58:56.420Z,5.30
2019-02-23T17:01:24.840Z,1.20
2019-02-23T17:03:53.275Z,5.28
2019-02-23T17:06:21.690Z,1.52
2019-02-23T17:08:50.140Z,1.15
2019-02-23T17:11:18.800Z,2.85
2019-02-23T17:13:47.227Z,2.52
2019-02-23T17:16:15.641Z,2.70
2019-02-23T17:18:44.332Z,5.17
2019-02-23T17:21:12.834Z,2.90
2019-02-23T17:23:41.511Z,5.83
2019-02-23T17:26:09.951Z,2.30
2019-02-23T17:28:38.591Z,1.60
2019-02-23T17:31:07.046Z,1.80
2019-02-23T17:33:35.527Z,1.45
2019-02-23T17:36:03.958Z,3.12
2019-02-23T17:38:32.383Z,4.20
2019-02-23T17:41:00.790Z,3.05
2019-02-23T17:43:29.467Z,1.27
2019-02-23T17:45:58.111Z,3.72
2019-02-23T17:48:26.575Z,1.37
2019-02-23T17:50:54.990Z,4.15
2019-02-23T17:53:23.633Z,4.87
2019-02-23T17:55:52.085Z,16.23
2019-02-23T17:58:20.511Z,3.22
2019-02-23T18:00:48.929Z,3.15
2019-02-23T18:03:17.358Z,3.65
2019-02-23T18:05:45.841Z,1.50
2019-02-23T18:08:14.489Z,1.22
2019-02-23T18:10:42.974Z,3.00
2019-02-23T18:13:12.039Z,3.58
2019-02-23T18:15:40.626Z,2.47
2019-02-23T18:18:09.048Z,2.17
2019-02-23T18:20:37.476Z,2.70
2019-02-23T18:23:05.898Z,2.17
2019-02-23T18:25:34.330Z,2.37
2019-02-23T18:28:02.783Z,1.20
2019-02-23T18:30:31.230Z,4.45
2019-02-23T18:32:59.645Z,6.42
2019-02-23T18:35:28.113Z,3.05
2019-02-23T18:37:56.518Z,2.42
2019-02-23T18:40:24.950Z,6.05
2019-02-23T18:42:53.615Z,2.98
2019-02-23T18:45:22.293Z,4.10
2019-02-23T18:47:50.996Z,3.05
2019-02-23T18:50:19.418Z,1.62
2019-02-23T18:52:47.839Z,2.37
2019-02-23T18:55:16.275Z,13.93
2019-02-23T18:57:44.702Z,2.83
2019-02-23T19:00:13.458Z,2.58
2019-02-23T19:02:41.917Z,2.22
2019-02-23T19:05:12.211Z,4.95
2019-02-23T19:07:40.620Z,3.40
2019-02-23T19:10:14.279Z,4.55
2019-02-23T19:12:42.975Z,3.20
2019-02-23T19:15:13.299Z,1.67
2019-02-23T19:17:41.722Z,1.40
2019-02-23T19:20:13.226Z,2.70
2019-02-23T19:22:41.639Z,4.50
2019-02-23T19:25:11.605Z,1.75
2019-02-23T19:27:40.258Z,2.00
2019-02-23T19:30:11.466Z,3.52
2019-02-23T19:32:39.904Z,1.82
2019-02-23T19:35:08.565Z,3.70
2019-02-23T19:37:36.983Z,2.77
2019-02-23T19:40:07.947Z,2.05
2019-02-23T19:42:36.611Z,11.43
2019-02-23T19:45:08.274Z,3.83
2019-02-23T19:47:36.754Z,4.10
2019-02-23T19:50:08.255Z,2.27
2019-02-23T19:52:36.674Z,1.77
2019-02-23T19:55:07.834Z,2.33
2019-02-23T19:57:36.246Z,3.42
2019-02-23T20:00:06.742Z,3.08
2019-02-23T20:02:35.381Z,2.45
2019-02-23T20:05:04.291Z,3.55
2019-02-23T20:07:32.694Z,4.78
2019-02-23T20:10:01.118Z,4.55
2019-02-23T20:12:29.789Z,3.08
2019-02-23T20:14:58.219Z,3.98
2019-02-23T20:17:26.637Z,4.87
2019-02-23T20:19:55.062Z,3.37
2019-02-23T20:22:23.596Z,4.85
2019-02-23T20:24:52.318Z,3.52
2019-02-23T20:27:20.966Z,4.30
2019-02-23T20:29:49.416Z,1.72
2019-02-23T20:32:18.083Z,5.70
2019-02-23T20:34:46.812Z,5.12
2019-02-23T20:37:15.230Z,3.27
2019-02-23T20:39:43.653Z,2.65
2019-02-23T20:42:12.098Z,3.37
2019-02-23T20:44:41.265Z,1.60
2019-02-23T20:47:10.127Z,2.87
2019-02-23T20:49:38.858Z,2.60
2019-02-23T20:52:07.978Z,2.75
2019-02-23T20:54:36.461Z,1.85
2019-02-23T20:57:07.998Z,4.87
2019-02-23T20:59:35.358Z,3.85
2019-02-23T21:02:03.841Z,1.32
2019-02-23T21:04:32.509Z,2.92
2019-02-23T21:07:01.220Z,2.35
2019-02-23T21:09:29.697Z,1.30
2019-02-23T21:11:58.331Z,3.72
2019-02-23T21:14:26.781Z,4.08
2019-02-23T21:16:55.211Z,4.95
2019-02-23T21:19:23.862Z,5.95
2019-02-23T21:21:52.328Z,2.60
2019-02-23T21:24:20.770Z,6.17
2019-02-23T21:26:49.189Z,1.70
2019-02-23T21:29:17.601Z,1.45
2019-02-23T21:31:46.307Z,1.95
2019-02-23T21:34:14.945Z,7.17
2019-02-23T21:36:43.421Z,2.77
2019-02-23T21:39:11.832Z,2.50
2019-02-23T21:41:40.249Z,1.10
2019-02-23T21:44:08.898Z,3.27
2019-02-23T21:46:37.634Z,2.08
2019-02-23T21:49:06.040Z,8.63
2019-02-23T21:51:34.457Z,1.25
2019-02-23T21:54:09.952Z,1.72
2019-02-23T21:56:33.017Z,3.60
2019-02-23T21:59:01.450Z,6.10
2019-02-23T22:01:30.138Z,3.05
2019-02-23T22:03:58.632Z,1.35
2019-02-23T22:06:27.124Z,1.77
2019-02-23T22:08:55.600Z,1.20
2019-02-23T22:11:24.254Z,4.05
2019-02-23T22:13:52.671Z,2.00
2019-02-23T22:16:21.113Z,2.62
2019-02-23T22:18:49.546Z,1.98
2019-02-23T22:21:17.962Z,5.28
2019-02-23T22:23:46.629Z,1.55
2019-02-23T22:26:15.034Z,2.83
2019-02-23T22:28:43.691Z,2.80
2019-02-23T22:31:12.183Z,2.50
2019-02-23T22:33:40.602Z,3.25
2019-02-23T22:36:09.016Z,2.08
2019-02-23T22:38:37.442Z,3.70
2019-02-23T22:41:05.852Z,3.33
2019-02-23T22:43:34.277Z,2.15
2019-02-23T22:46:02.685Z,2.22
2019-02-23T22:48:31.421Z,2.30
2019-02-23T22:51:00.074Z,2.72
2019-02-23T22:53:28.523Z,5.55
2019-02-23T22:55:56.954Z,4.00
2019-02-23T22:58:25.671Z,2.70
2019-02-23T23:00:55.408Z,1.75
2019-02-23T23:03:23.826Z,4.45
2019-02-23T23:05:52.229Z,6.97
2019-02-23T23:08:20.898Z,6.58
2019-02-23T23:10:49.306Z,2.60
2019-02-23T23:13:17.754Z,2.87
2019-02-23T23:15:46.160Z,2.10
2019-02-23T23:18:14.573Z,2.98
2019-02-23T23:20:43.221Z,2.45
2019-02-23T23:23:11.673Z,4.35
2019-02-23T23:25:40.082Z,3.33
2019-02-23T23:28:08.740Z,3.27
2019-02-23T23:30:37.467Z,7.92
2019-02-23T23:33:05.925Z,1.90
2019-02-23T23:35:34.591Z,2.27
2019-02-23T23:38:03.005Z,3.98
2019-02-23T23:40:31.663Z,7.62
2019-02-23T23:43:00.333Z,4.05
2019-02-23T23:45:28.769Z,1.20
2019-02-23T23:47:57.185Z,6.95
2019-02-23T23:50:25.588Z,2.60
2019-02-23T23:52:54.247Z,1.15
2019-02-23T23:55:23.034Z,3.33
2019-02-23T23:57:58.093Z,5.42
